sensor_id;sensor_type;location;lat;lon;timestamp;P1;durP1;ratioP1;P2;durP2;ratioP2
44276;SDS011;29973;43.742;1.236;2023-07-02T00:01:45;24.13;;;12.40;;
44276;SDS011;29973;43.742;1.236;2023-07-02T00:04:12;36.90;;;12.77;;
44276;SDS011;29973;43.742;1.236;2023-07-02T00:06:44;28.38;;;12.60;;
44276;SDS011;29973;43.742;1.236;2023-07-02T00:09:13;26.80;;;13.13;;
44276;SDS011;29973;43.742;1.236;2023-07-02T00:11:40;25.73;;;12.55;;
44276;SDS011;29973;43.742;1.236;2023-07-02T00:16:38;25.75;;;12.02;;
44276;SDS011;29973;43.742;1.236;2023-07-02T00:19:06;20.58;;;12.18;;
44276;SDS011;29973;43.742;1.236;2023-07-02T00:21:31;21.88;;;11.70;;
44276;SDS011;29973;43.742;1.236;2023-07-02T00:23:58;26.70;;;12.13;;
44276;SDS011;29973;43.742;1.236;2023-07-02T00:26:25;27.42;;;12.73;;
44276;SDS011;29973;43.742;1.236;2023-07-02T00:28:52;24.05;;;11.48;;
44276;SDS011;29973;43.742;1.236;2023-07-02T00:31:20;23.40;;;11.73;;
44276;SDS011;29973;43.742;1.236;2023-07-02T00:33:46;21.45;;;11.85;;
44276;SDS011;29973;43.742;1.236;2023-07-02T00:36:13;24.27;;;12.18;;
44276;SDS011;29973;43.742;1.236;2023-07-02T00:38:42;29.42;;;13.10;;
44276;SDS011;29973;43.742;1.236;2023-07-02T00:41:10;25.73;;;11.88;;
44276;SDS011;29973;43.742;1.236;2023-07-02T00:43:37;25.23;;;12.20;;
44276;SDS011;29973;43.742;1.236;2023-07-02T00:46:09;21.02;;;12.40;;
44276;SDS011;29973;43.742;1.236;2023-07-02T00:48:43;19.92;;;12.32;;
44276;SDS011;29973;43.742;1.236;2023-07-02T00:51:16;27.80;;;11.85;;
44276;SDS011;29973;43.742;1.236;2023-07-02T00:53:47;22.80;;;12.27;;
44276;SDS011;29973;43.742;1.236;2023-07-02T00:56:13;24.58;;;12.90;;
44276;SDS011;29973;43.742;1.236;2023-07-02T00:58:43;29.42;;;13.35;;
44276;SDS011;29973;43.742;1.236;2023-07-02T01:01:25;28.00;;;12.88;;
44276;SDS011;29973;43.742;1.236;2023-07-02T01:03:53;29.88;;;13.70;;
44276;SDS011;29973;43.742;1.236;2023-07-02T01:06:28;33.40;;;14.82;;
44276;SDS011;29973;43.742;1.236;2023-07-02T01:08:55;31.02;;;14.57;;
44276;SDS011;29973;43.742;1.236;2023-07-02T01:11:24;31.23;;;14.32;;
44276;SDS011;29973;43.742;1.236;2023-07-02T01:14:08;29.98;;;15.07;;
44276;SDS011;29973;43.742;1.236;2023-07-02T01:16:40;30.92;;;14.60;;
44276;SDS011;29973;43.742;1.236;2023-07-02T01:19:12;27.70;;;13.52;;
44276;SDS011;29973;43.742;1.236;2023-07-02T01:21:44;27.75;;;14.68;;
44276;SDS011;29973;43.742;1.236;2023-07-02T01:24:11;27.02;;;14.48;;
44276;SDS011;29973;43.742;1.236;2023-07-02T01:26:39;29.13;;;14.80;;
44276;SDS011;29973;43.742;1.236;2023-07-02T01:29:18;26.40;;;13.43;;
44276;SDS011;29973;43.742;1.236;2023-07-02T01:31:45;29.10;;;14.40;;
44276;SDS011;29973;43.742;1.236;2023-07-02T01:34:12;28.77;;;13.73;;
44276;SDS011;29973;43.742;1.236;2023-07-02T01:36:38;24.00;;;13.23;;
44276;SDS011;29973;43.742;1.236;2023-07-02T01:39:04;30.60;;;13.30;;
44276;SDS011;29973;43.742;1.236;2023-07-02T01:41:36;23.02;;;13.30;;
44276;SDS011;29973;43.742;1.236;2023-07-02T01:44:22;32.90;;;13.32;;
44276;SDS011;29973;43.742;1.236;2023-07-02T01:46:48;31.77;;;13.43;;
44276;SDS011;29973;43.742;1.236;2023-07-02T01:49:20;26.33;;;13.60;;
44276;SDS011;29973;43.742;1.236;2023-07-02T01:51:49;23.83;;;12.80;;
44276;SDS011;29973;43.742;1.236;2023-07-02T01:54:18;27.33;;;13.68;;
44276;SDS011;29973;43.742;1.236;2023-07-02T01:56:44;23.73;;;13.40;;
44276;SDS011;29973;43.742;1.236;2023-07-02T01:59:10;26.23;;;13.27;;
44276;SDS011;29973;43.742;1.236;2023-07-02T02:01:36;28.02;;;14.25;;
44276;SDS011;29973;43.742;1.236;2023-07-02T02:04:05;36.60;;;14.23;;
44276;SDS011;29973;43.742;1.236;2023-07-02T02:06:32;30.50;;;14.15;;
44276;SDS011;29973;43.742;1.236;2023-07-02T02:08:57;29.42;;;14.88;;
44276;SDS011;29973;43.742;1.236;2023-07-02T02:11:24;27.50;;;13.73;;
44276;SDS011;29973;43.742;1.236;2023-07-02T02:13:49;26.52;;;15.30;;
44276;SDS011;29973;43.742;1.236;2023-07-02T02:16:15;28.92;;;14.07;;
44276;SDS011;29973;43.742;1.236;2023-07-02T02:18:41;30.08;;;15.15;;
44276;SDS011;29973;43.742;1.236;2023-07-02T02:21:06;32.42;;;14.82;;
44276;SDS011;29973;43.742;1.236;2023-07-02T02:23:32;30.17;;;15.65;;
44276;SDS011;29973;43.742;1.236;2023-07-02T02:25:58;31.77;;;15.32;;
44276;SDS011;29973;43.742;1.236;2023-07-02T02:28:24;30.67;;;16.08;;
44276;SDS011;29973;43.742;1.236;2023-07-02T02:30:49;34.63;;;16.00;;
44276;SDS011;29973;43.742;1.236;2023-07-02T02:33:15;32.45;;;15.68;;
44276;SDS011;29973;43.742;1.236;2023-07-02T02:35:41;26.80;;;14.30;;
44276;SDS011;29973;43.742;1.236;2023-07-02T02:38:07;31.50;;;15.00;;
44276;SDS011;29973;43.742;1.236;2023-07-02T02:40:32;39.05;;;16.10;;
44276;SDS011;29973;43.742;1.236;2023-07-02T02:42:58;25.33;;;15.45;;
44276;SDS011;29973;43.742;1.236;2023-07-02T02:45:24;29.98;;;15.20;;
44276;SDS011;29973;43.742;1.236;2023-07-02T02:47:49;26.27;;;14.43;;
44276;SDS011;29973;43.742;1.236;2023-07-02T02:50:15;31.38;;;14.85;;
44276;SDS011;29973;43.742;1.236;2023-07-02T02:52:41;23.17;;;14.88;;
44276;SDS011;29973;43.742;1.236;2023-07-02T02:55:07;30.55;;;15.30;;
44276;SDS011;29973;43.742;1.236;2023-07-02T02:57:34;36.05;;;14.35;;
44276;SDS011;29973;43.742;1.236;2023-07-02T02:59:59;29.10;;;14.35;;
44276;SDS011;29973;43.742;1.236;2023-07-02T03:02:25;33.38;;;14.98;;
44276;SDS011;29973;43.742;1.236;2023-07-02T03:04:51;26.95;;;14.02;;
44276;SDS011;29973;43.742;1.236;2023-07-02T03:07:16;28.48;;;14.68;;
44276;SDS011;29973;43.742;1.236;2023-07-02T03:09:42;29.30;;;14.13;;
44276;SDS011;29973;43.742;1.236;2023-07-02T03:12:08;35.50;;;15.18;;
44276;SDS011;29973;43.742;1.236;2023-07-02T03:14:34;26.98;;;14.30;;
44276;SDS011;29973;43.742;1.236;2023-07-02T03:17:00;35.95;;;15.07;;
44276;SDS011;29973;43.742;1.236;2023-07-02T03:19:25;32.58;;;15.68;;
44276;SDS011;29973;43.742;1.236;2023-07-02T03:21:51;33.00;;;15.80;;
44276;SDS011;29973;43.742;1.236;2023-07-02T03:24:17;31.25;;;14.70;;
44276;SDS011;29973;43.742;1.236;2023-07-02T03:26:43;26.38;;;14.40;;
44276;SDS011;29973;43.742;1.236;2023-07-02T03:29:09;30.92;;;15.45;;
44276;SDS011;29973;43.742;1.236;2023-07-02T03:31:35;25.92;;;14.40;;
44276;SDS011;29973;43.742;1.236;2023-07-02T03:34:05;34.53;;;15.52;;
44276;SDS011;29973;43.742;1.236;2023-07-02T03:36:32;26.58;;;14.95;;
44276;SDS011;29973;43.742;1.236;2023-07-02T03:38:58;30.15;;;13.68;;
44276;SDS011;29973;43.742;1.236;2023-07-02T03:41:24;27.13;;;15.40;;
44276;SDS011;29973;43.742;1.236;2023-07-02T03:43:50;27.10;;;13.38;;
44276;SDS011;29973;43.742;1.236;2023-07-02T03:46:16;23.58;;;13.00;;
44276;SDS011;29973;43.742;1.236;2023-07-02T03:48:41;27.30;;;13.40;;
44276;SDS011;29973;43.742;1.236;2023-07-02T03:51:07;29.52;;;14.55;;
44276;SDS011;29973;43.742;1.236;2023-07-02T03:53:33;28.20;;;13.25;;
44276;SDS011;29973;43.742;1.236;2023-07-02T03:55:59;24.98;;;12.75;;
44276;SDS011;29973;43.742;1.236;2023-07-02T03:58:25;27.55;;;12.63;;
44276;SDS011;29973;43.742;1.236;2023-07-02T04:00:51;24.52;;;11.63;;
44276;SDS011;29973;43.742;1.236;2023-07-02T04:03:16;25.77;;;11.10;;
44276;SDS011;29973;43.742;1.236;2023-07-02T04:05:43;23.27;;;11.48;;
44276;SDS011;29973;43.742;1.236;2023-07-02T04:08:09;18.10;;;10.57;;
44276;SDS011;29973;43.742;1.236;2023-07-02T04:10:35;25.88;;;10.60;;
44276;SDS011;29973;43.742;1.236;2023-07-02T04:13:01;23.30;;;10.77;;
44276;SDS011;29973;43.742;1.236;2023-07-02T04:15:27;22.00;;;11.32;;
44276;SDS011;29973;43.742;1.236;2023-07-02T04:17:52;19.48;;;10.30;;
44276;SDS011;29973;43.742;1.236;2023-07-02T04:20:21;21.90;;;11.48;;
44276;SDS011;29973;43.742;1.236;2023-07-02T04:22:47;26.85;;;11.07;;
44276;SDS011;29973;43.742;1.236;2023-07-02T04:25:13;28.98;;;11.15;;
44276;SDS011;29973;43.742;1.236;2023-07-02T04:27:42;22.17;;;10.18;;
44276;SDS011;29973;43.742;1.236;2023-07-02T04:30:09;19.27;;;10.57;;
44276;SDS011;29973;43.742;1.236;2023-07-02T04:32:38;23.02;;;10.68;;
44276;SDS011;29973;43.742;1.236;2023-07-02T04:35:05;19.27;;;9.70;;
44276;SDS011;29973;43.742;1.236;2023-07-02T04:37:31;25.20;;;11.13;;
44276;SDS011;29973;43.742;1.236;2023-07-02T04:39:57;20.70;;;10.60;;
44276;SDS011;29973;43.742;1.236;2023-07-02T04:42:23;19.35;;;9.98;;
44276;SDS011;29973;43.742;1.236;2023-07-02T04:44:55;16.08;;;9.30;;
44276;SDS011;29973;43.742;1.236;2023-07-02T04:47:21;24.80;;;9.77;;
44276;SDS011;29973;43.742;1.236;2023-07-02T04:49:47;17.00;;;9.48;;
44276;SDS011;29973;43.742;1.236;2023-07-02T04:52:13;19.65;;;9.70;;
44276;SDS011;29973;43.742;1.236;2023-07-02T04:54:38;23.38;;;9.73;;
44276;SDS011;29973;43.742;1.236;2023-07-02T04:57:04;21.55;;;9.30;;
44276;SDS011;29973;43.742;1.236;2023-07-02T04:59:30;17.63;;;9.07;;
44276;SDS011;29973;43.742;1.236;2023-07-02T05:01:55;19.25;;;8.73;;
44276;SDS011;29973;43.742;1.236;2023-07-02T05:04:21;17.88;;;8.52;;
44276;SDS011;29973;43.742;1.236;2023-07-02T05:06:47;15.07;;;8.35;;
44276;SDS011;29973;43.742;1.236;2023-07-02T05:09:12;24.58;;;9.10;;
44276;SDS011;29973;43.742;1.236;2023-07-02T05:11:38;17.23;;;8.80;;
44276;SDS011;29973;43.742;1.236;2023-07-02T05:14:04;17.98;;;8.63;;
44276;SDS011;29973;43.742;1.236;2023-07-02T05:16:30;17.70;;;8.32;;
44276;SDS011;29973;43.742;1.236;2023-07-02T05:18:55;16.50;;;8.27;;
44276;SDS011;29973;43.742;1.236;2023-07-02T05:21:21;12.30;;;7.43;;
44276;SDS011;29973;43.742;1.236;2023-07-02T05:23:47;15.68;;;7.90;;
44276;SDS011;29973;43.742;1.236;2023-07-02T05:26:13;21.63;;;8.80;;
44276;SDS011;29973;43.742;1.236;2023-07-02T05:28:39;11.18;;;7.47;;
44276;SDS011;29973;43.742;1.236;2023-07-02T05:31:05;15.65;;;8.45;;
44276;SDS011;29973;43.742;1.236;2023-07-02T05:33:31;13.70;;;7.45;;
44276;SDS011;29973;43.742;1.236;2023-07-02T05:35:58;18.10;;;8.13;;
44276;SDS011;29973;43.742;1.236;2023-07-02T05:38:24;16.17;;;7.05;;
44276;SDS011;29973;43.742;1.236;2023-07-02T05:40:49;13.85;;;8.20;;
44276;SDS011;29973;43.742;1.236;2023-07-02T05:43:15;13.40;;;6.63;;
44276;SDS011;29973;43.742;1.236;2023-07-02T05:45:41;18.77;;;7.15;;
44276;SDS011;29973;43.742;1.236;2023-07-02T05:48:07;13.52;;;7.55;;
44276;SDS011;29973;43.742;1.236;2023-07-02T05:50:33;12.20;;;6.18;;
44276;SDS011;29973;43.742;1.236;2023-07-02T05:52:59;15.18;;;7.20;;
44276;SDS011;29973;43.742;1.236;2023-07-02T05:55:24;14.52;;;7.00;;
44276;SDS011;29973;43.742;1.236;2023-07-02T05:57:50;10.30;;;6.57;;
44276;SDS011;29973;43.742;1.236;2023-07-02T06:00:16;18.45;;;7.25;;
44276;SDS011;29973;43.742;1.236;2023-07-02T06:02:42;11.45;;;6.30;;
44276;SDS011;29973;43.742;1.236;2023-07-02T06:05:07;16.05;;;6.68;;
44276;SDS011;29973;43.742;1.236;2023-07-02T06:07:33;11.68;;;6.88;;
44276;SDS011;29973;43.742;1.236;2023-07-02T06:09:59;11.32;;;6.63;;
44276;SDS011;29973;43.742;1.236;2023-07-02T06:12:25;11.23;;;6.10;;
44276;SDS011;29973;43.742;1.236;2023-07-02T06:14:50;9.45;;;5.40;;
44276;SDS011;29973;43.742;1.236;2023-07-02T06:17:16;11.50;;;6.05;;
44276;SDS011;29973;43.742;1.236;2023-07-02T06:19:42;10.38;;;6.07;;
44276;SDS011;29973;43.742;1.236;2023-07-02T06:22:09;10.48;;;6.10;;
44276;SDS011;29973;43.742;1.236;2023-07-02T06:24:34;11.20;;;6.13;;
44276;SDS011;29973;43.742;1.236;2023-07-02T06:27:00;10.95;;;5.38;;
44276;SDS011;29973;43.742;1.236;2023-07-02T06:29:27;10.55;;;5.55;;
44276;SDS011;29973;43.742;1.236;2023-07-02T06:31:54;10.55;;;5.20;;
44276;SDS011;29973;43.742;1.236;2023-07-02T06:34:20;12.95;;;5.85;;
44276;SDS011;29973;43.742;1.236;2023-07-02T06:36:45;9.48;;;6.00;;
44276;SDS011;29973;43.742;1.236;2023-07-02T06:39:11;9.55;;;5.40;;
44276;SDS011;29973;43.742;1.236;2023-07-02T06:41:37;9.85;;;5.25;;
44276;SDS011;29973;43.742;1.236;2023-07-02T06:44:02;7.93;;;5.07;;
44276;SDS011;29973;43.742;1.236;2023-07-02T06:46:29;12.20;;;5.90;;
44276;SDS011;29973;43.742;1.236;2023-07-02T06:48:55;8.48;;;5.50;;
44276;SDS011;29973;43.742;1.236;2023-07-02T06:51:21;9.02;;;4.80;;
44276;SDS011;29973;43.742;1.236;2023-07-02T06:53:47;10.00;;;5.20;;
44276;SDS011;29973;43.742;1.236;2023-07-02T06:56:13;9.70;;;5.00;;
44276;SDS011;29973;43.742;1.236;2023-07-02T06:58:42;10.60;;;5.03;;
44276;SDS011;29973;43.742;1.236;2023-07-02T07:01:08;11.85;;;5.65;;
44276;SDS011;29973;43.742;1.236;2023-07-02T07:03:34;9.98;;;5.60;;
44276;SDS011;29973;43.742;1.236;2023-07-02T07:06:00;11.30;;;5.88;;
44276;SDS011;29973;43.742;1.236;2023-07-02T07:08:26;13.68;;;5.45;;
44276;SDS011;29973;43.742;1.236;2023-07-02T07:10:52;9.18;;;5.38;;
44276;SDS011;29973;43.742;1.236;2023-07-02T07:13:17;14.02;;;5.57;;
44276;SDS011;29973;43.742;1.236;2023-07-02T07:15:43;8.95;;;5.30;;
44276;SDS011;29973;43.742;1.236;2023-07-02T07:18:09;9.55;;;4.82;;
44276;SDS011;29973;43.742;1.236;2023-07-02T07:20:35;6.68;;;4.60;;
44276;SDS011;29973;43.742;1.236;2023-07-02T07:23:02;12.98;;;5.20;;
44276;SDS011;29973;43.742;1.236;2023-07-02T07:25:28;12.85;;;4.95;;
44276;SDS011;29973;43.742;1.236;2023-07-02T07:27:54;7.47;;;4.50;;
44276;SDS011;29973;43.742;1.236;2023-07-02T07:30:20;9.88;;;4.45;;
44276;SDS011;29973;43.742;1.236;2023-07-02T07:32:51;12.77;;;4.28;;
44276;SDS011;29973;43.742;1.236;2023-07-02T07:35:17;11.52;;;5.47;;
44276;SDS011;29973;43.742;1.236;2023-07-02T07:37:44;9.57;;;4.90;;
44276;SDS011;29973;43.742;1.236;2023-07-02T07:40:10;10.98;;;5.10;;
44276;SDS011;29973;43.742;1.236;2023-07-02T07:42:36;9.60;;;4.60;;
44276;SDS011;29973;43.742;1.236;2023-07-02T07:45:02;8.07;;;4.18;;
44276;SDS011;29973;43.742;1.236;2023-07-02T07:47:29;6.55;;;4.00;;
44276;SDS011;29973;43.742;1.236;2023-07-02T07:49:54;8.43;;;3.90;;
44276;SDS011;29973;43.742;1.236;2023-07-02T07:52:20;6.70;;;3.67;;
44276;SDS011;29973;43.742;1.236;2023-07-02T07:54:46;4.90;;;3.13;;
44276;SDS011;29973;43.742;1.236;2023-07-02T07:57:13;5.03;;;2.90;;
44276;SDS011;29973;43.742;1.236;2023-07-02T07:59:39;4.93;;;3.50;;
44276;SDS011;29973;43.742;1.236;2023-07-02T08:02:05;3.83;;;2.55;;
44276;SDS011;29973;43.742;1.236;2023-07-02T08:04:31;2.90;;;2.25;;
44276;SDS011;29973;43.742;1.236;2023-07-02T08:06:56;4.10;;;2.03;;
44276;SDS011;29973;43.742;1.236;2023-07-02T08:09:23;4.22;;;2.35;;
44276;SDS011;29973;43.742;1.236;2023-07-02T08:11:49;3.78;;;2.00;;
44276;SDS011;29973;43.742;1.236;2023-07-02T08:14:18;2.58;;;2.38;;
44276;SDS011;29973;43.742;1.236;2023-07-02T08:16:44;2.83;;;2.28;;
44276;SDS011;29973;43.742;1.236;2023-07-02T08:19:10;2.95;;;2.00;;
44276;SDS011;29973;43.742;1.236;2023-07-02T08:21:36;2.80;;;1.80;;
44276;SDS011;29973;43.742;1.236;2023-07-02T08:24:02;2.97;;;2.38;;
44276;SDS011;29973;43.742;1.236;2023-07-02T08:26:28;2.72;;;1.77;;
44276;SDS011;29973;43.742;1.236;2023-07-02T08:28:54;2.78;;;2.10;;
44276;SDS011;29973;43.742;1.236;2023-07-02T08:31:20;2.03;;;1.67;;
44276;SDS011;29973;43.742;1.236;2023-07-02T08:33:46;1.60;;;1.08;;
44276;SDS011;29973;43.742;1.236;2023-07-02T08:36:12;1.48;;;1.38;;
44276;SDS011;29973;43.742;1.236;2023-07-02T08:38:38;1.23;;;1.13;;
44276;SDS011;29973;43.742;1.236;2023-07-02T08:41:07;1.60;;;1.00;;
44276;SDS011;29973;43.742;1.236;2023-07-02T08:43:32;1.55;;;0.68;;
44276;SDS011;29973;43.742;1.236;2023-07-02T08:46:00;2.30;;;1.05;;
44276;SDS011;29973;43.742;1.236;2023-07-02T08:48:26;2.50;;;1.10;;
44276;SDS011;29973;43.742;1.236;2023-07-02T08:50:54;2.47;;;0.60;;
44276;SDS011;29973;43.742;1.236;2023-07-02T08:53:20;1.00;;;0.73;;
44276;SDS011;29973;43.742;1.236;2023-07-02T08:55:50;1.87;;;0.73;;
44276;SDS011;29973;43.742;1.236;2023-07-02T08:58:16;2.25;;;0.50;;
44276;SDS011;29973;43.742;1.236;2023-07-02T09:01:03;0.68;;;0.40;;
44276;SDS011;29973;43.742;1.236;2023-07-02T09:03:34;1.42;;;0.50;;
44276;SDS011;29973;43.742;1.236;2023-07-02T09:06:04;2.05;;;0.50;;
44276;SDS011;29973;43.742;1.236;2023-07-02T09:08:34;1.20;;;0.57;;
44276;SDS011;29973;43.742;1.236;2023-07-02T09:13:57;1.65;;;0.50;;
44276;SDS011;29973;43.742;1.236;2023-07-02T09:16:30;0.93;;;0.40;;
44276;SDS011;29973;43.742;1.236;2023-07-02T09:19:02;2.50;;;0.73;;
44276;SDS011;29973;43.742;1.236;2023-07-02T09:21:46;5.88;;;0.60;;
44276;SDS011;29973;43.742;1.236;2023-07-02T09:24:19;1.02;;;0.52;;
44276;SDS011;29973;43.742;1.236;2023-07-02T09:26:48;3.00;;;0.60;;
44276;SDS011;29973;43.742;1.236;2023-07-02T09:29:20;1.02;;;0.38;;
44276;SDS011;29973;43.742;1.236;2023-07-02T09:31:48;1.38;;;0.50;;
44276;SDS011;29973;43.742;1.236;2023-07-02T09:34:15;1.58;;;0.70;;
44276;SDS011;29973;43.742;1.236;2023-07-02T09:36:41;1.50;;;0.50;;
44276;SDS011;29973;43.742;1.236;2023-07-02T09:39:18;1.23;;;0.45;;
44276;SDS011;29973;43.742;1.236;2023-07-02T09:41:46;1.10;;;0.40;;
44276;SDS011;29973;43.742;1.236;2023-07-02T09:44:15;3.08;;;0.60;;
44276;SDS011;29973;43.742;1.236;2023-07-02T09:46:45;1.17;;;0.70;;
44276;SDS011;29973;43.742;1.236;2023-07-02T09:49:16;3.08;;;0.60;;
44276;SDS011;29973;43.742;1.236;2023-07-02T09:51:45;0.65;;;0.50;;
44276;SDS011;29973;43.742;1.236;2023-07-02T09:54:11;2.45;;;0.70;;
44276;SDS011;29973;43.742;1.236;2023-07-02T09:56:37;0.60;;;0.50;;
44276;SDS011;29973;43.742;1.236;2023-07-02T09:59:04;2.80;;;0.68;;
44276;SDS011;29973;43.742;1.236;2023-07-02T10:01:30;1.10;;;0.80;;
44276;SDS011;29973;43.742;1.236;2023-07-02T10:03:56;3.05;;;0.73;;
44276;SDS011;29973;43.742;1.236;2023-07-02T10:06:22;0.73;;;0.50;;
44276;SDS011;29973;43.742;1.236;2023-07-02T10:08:54;1.08;;;0.70;;
44276;SDS011;29973;43.742;1.236;2023-07-02T10:11:21;1.33;;;0.50;;
44276;SDS011;29973;43.742;1.236;2023-07-02T10:13:59;0.75;;;0.50;;
44276;SDS011;29973;43.742;1.236;2023-07-02T10:16:25;1.20;;;0.60;;
44276;SDS011;29973;43.742;1.236;2023-07-02T10:19:18;0.57;;;0.50;;
44276;SDS011;29973;43.742;1.236;2023-07-02T10:21:43;1.75;;;0.75;;
44276;SDS011;29973;43.742;1.236;2023-07-02T10:24:15;3.05;;;1.02;;
44276;SDS011;29973;43.742;1.236;2023-07-02T10:26:58;0.82;;;0.60;;
44276;SDS011;29973;43.742;1.236;2023-07-02T10:29:26;3.38;;;0.85;;
44276;SDS011;29973;43.742;1.236;2023-07-02T10:31:54;1.65;;;0.77;;
44276;SDS011;29973;43.742;1.236;2023-07-02T10:34:33;2.25;;;0.80;;
44276;SDS011;29973;43.742;1.236;2023-07-02T10:37:05;1.35;;;0.80;;
44276;SDS011;29973;43.742;1.236;2023-07-02T10:39:38;1.60;;;0.73;;
44276;SDS011;29973;43.742;1.236;2023-07-02T10:42:17;1.42;;;0.82;;
44276;SDS011;29973;43.742;1.236;2023-07-02T10:44:50;2.80;;;1.00;;
44276;SDS011;29973;43.742;1.236;2023-07-02T10:47:25;1.05;;;0.80;;
44276;SDS011;29973;43.742;1.236;2023-07-02T10:50:00;5.40;;;1.00;;
44276;SDS011;29973;43.742;1.236;2023-07-02T10:52:42;2.25;;;0.80;;
44276;SDS011;29973;43.742;1.236;2023-07-02T10:55:10;3.45;;;1.10;;
44276;SDS011;29973;43.742;1.236;2023-07-02T10:57:44;2.30;;;0.93;;
44276;SDS011;29973;43.742;1.236;2023-07-02T11:00:22;1.33;;;1.00;;
44276;SDS011;29973;43.742;1.236;2023-07-02T11:02:51;2.60;;;1.13;;
44276;SDS011;29973;43.742;1.236;2023-07-02T11:05:19;4.70;;;0.98;;
44276;SDS011;29973;43.742;1.236;2023-07-02T11:07:52;1.52;;;0.88;;
44276;SDS011;29973;43.742;1.236;2023-07-02T11:10:23;1.10;;;0.90;;
44276;SDS011;29973;43.742;1.236;2023-07-02T11:12:55;1.98;;;0.75;;
44276;SDS011;29973;43.742;1.236;2023-07-02T11:15:23;0.80;;;0.70;;
44276;SDS011;29973;43.742;1.236;2023-07-02T11:17:52;1.67;;;0.77;;
44276;SDS011;29973;43.742;1.236;2023-07-02T11:20:22;2.95;;;1.00;;
44276;SDS011;29973;43.742;1.236;2023-07-02T11:23:02;3.28;;;0.77;;
44276;SDS011;29973;43.742;1.236;2023-07-02T11:25:33;1.30;;;0.90;;
44276;SDS011;29973;43.742;1.236;2023-07-02T11:28:03;2.45;;;1.45;;
44276;SDS011;29973;43.742;1.236;2023-07-02T11:30:44;5.20;;;0.90;;
44276;SDS011;29973;43.742;1.236;2023-07-02T11:36:20;1.63;;;1.13;;
44276;SDS011;29973;43.742;1.236;2023-07-02T11:38:52;2.63;;;0.90;;
44276;SDS011;29973;43.742;1.236;2023-07-02T11:41:23;1.00;;;0.73;;
44276;SDS011;29973;43.742;1.236;2023-07-02T11:43:51;1.90;;;0.80;;
44276;SDS011;29973;43.742;1.236;2023-07-02T11:46:16;1.90;;;1.02;;
44276;SDS011;29973;43.742;1.236;2023-07-02T11:48:42;1.25;;;1.13;;
44276;SDS011;29973;43.742;1.236;2023-07-02T11:51:08;1.27;;;0.80;;
44276;SDS011;29973;43.742;1.236;2023-07-02T11:53:33;1.35;;;0.90;;
44276;SDS011;29973;43.742;1.236;2023-07-02T11:55:59;2.08;;;1.05;;
44276;SDS011;29973;43.742;1.236;2023-07-02T11:58:25;2.42;;;1.00;;
44276;SDS011;29973;43.742;1.236;2023-07-02T12:00:51;1.77;;;0.98;;
44276;SDS011;29973;43.742;1.236;2023-07-02T12:03:16;1.73;;;0.90;;
44276;SDS011;29973;43.742;1.236;2023-07-02T12:05:42;1.63;;;0.75;;
44276;SDS011;29973;43.742;1.236;2023-07-02T12:08:08;2.70;;;1.00;;
44276;SDS011;29973;43.742;1.236;2023-07-02T12:10:34;2.13;;;0.80;;
44276;SDS011;29973;43.742;1.236;2023-07-02T12:12:59;1.85;;;1.10;;
44276;SDS011;29973;43.742;1.236;2023-07-02T12:15:25;1.67;;;0.93;;
44276;SDS011;29973;43.742;1.236;2023-07-02T12:17:51;2.00;;;1.38;;
44276;SDS011;29973;43.742;1.236;2023-07-02T12:20:16;1.50;;;1.10;;
44276;SDS011;29973;43.742;1.236;2023-07-02T12:22:42;2.22;;;1.20;;
44276;SDS011;29973;43.742;1.236;2023-07-02T12:25:09;2.92;;;1.30;;
44276;SDS011;29973;43.742;1.236;2023-07-02T12:27:35;2.00;;;1.23;;
44276;SDS011;29973;43.742;1.236;2023-07-02T12:30:01;1.85;;;1.38;;
44276;SDS011;29973;43.742;1.236;2023-07-02T12:32:27;1.80;;;1.15;;
44276;SDS011;29973;43.742;1.236;2023-07-02T12:34:53;1.58;;;1.15;;
44276;SDS011;29973;43.742;1.236;2023-07-02T12:37:19;1.65;;;1.10;;
44276;SDS011;29973;43.742;1.236;2023-07-02T12:39:45;1.33;;;0.82;;
44276;SDS011;29973;43.742;1.236;2023-07-02T12:42:11;1.45;;;1.10;;
44276;SDS011;29973;43.742;1.236;2023-07-02T12:44:37;1.73;;;0.90;;
44276;SDS011;29973;43.742;1.236;2023-07-02T12:47:02;2.58;;;1.20;;
44276;SDS011;29973;43.742;1.236;2023-07-02T12:49:28;3.17;;;1.23;;
44276;SDS011;29973;43.742;1.236;2023-07-02T12:51:54;3.38;;;1.30;;
44276;SDS011;29973;43.742;1.236;2023-07-02T12:54:19;3.55;;;0.85;;
44276;SDS011;29973;43.742;1.236;2023-07-02T12:56:45;2.20;;;0.93;;
44276;SDS011;29973;43.742;1.236;2023-07-02T12:59:11;2.95;;;1.00;;
44276;SDS011;29973;43.742;1.236;2023-07-02T13:01:36;1.52;;;1.13;;
44276;SDS011;29973;43.742;1.236;2023-07-02T13:04:03;1.00;;;0.90;;
44276;SDS011;29973;43.742;1.236;2023-07-02T13:06:28;1.90;;;1.15;;
44276;SDS011;29973;43.742;1.236;2023-07-02T13:08:54;1.77;;;1.10;;
44276;SDS011;29973;43.742;1.236;2023-07-02T13:11:21;1.63;;;1.10;;
44276;SDS011;29973;43.742;1.236;2023-07-02T13:13:46;1.88;;;1.10;;
44276;SDS011;29973;43.742;1.236;2023-07-02T13:16:12;1.30;;;0.90;;
44276;SDS011;29973;43.742;1.236;2023-07-02T13:18:38;0.85;;;0.77;;
44276;SDS011;29973;43.742;1.236;2023-07-02T13:21:04;3.42;;;0.90;;
44276;SDS011;29973;43.742;1.236;2023-07-02T13:23:30;1.50;;;0.85;;
44276;SDS011;29973;43.742;1.236;2023-07-02T13:25:55;1.38;;;0.90;;
44276;SDS011;29973;43.742;1.236;2023-07-02T13:28:21;3.00;;;1.00;;
44276;SDS011;29973;43.742;1.236;2023-07-02T13:30:47;2.53;;;1.00;;
44276;SDS011;29973;43.742;1.236;2023-07-02T13:33:12;2.10;;;0.60;;
44276;SDS011;29973;43.742;1.236;2023-07-02T13:35:38;0.60;;;0.60;;
44276;SDS011;29973;43.742;1.236;2023-07-02T13:38:04;1.08;;;0.60;;
44276;SDS011;29973;43.742;1.236;2023-07-02T13:40:30;0.60;;;0.60;;
44276;SDS011;29973;43.742;1.236;2023-07-02T13:42:56;0.80;;;0.73;;
44276;SDS011;29973;43.742;1.236;2023-07-02T13:45:21;1.58;;;0.60;;
44276;SDS011;29973;43.742;1.236;2023-07-02T13:47:47;2.00;;;0.80;;
44276;SDS011;29973;43.742;1.236;2023-07-02T13:50:13;1.02;;;0.43;;
44276;SDS011;29973;43.742;1.236;2023-07-02T13:52:38;5.53;;;0.98;;
44276;SDS011;29973;43.742;1.236;2023-07-02T13:55:04;1.38;;;0.73;;
44276;SDS011;29973;43.742;1.236;2023-07-02T13:57:30;2.80;;;0.80;;
44276;SDS011;29973;43.742;1.236;2023-07-02T13:59:56;0.80;;;0.63;;
44276;SDS011;29973;43.742;1.236;2023-07-02T14:02:22;1.80;;;0.95;;
44276;SDS011;29973;43.742;1.236;2023-07-02T14:04:48;0.82;;;0.60;;
44276;SDS011;29973;43.742;1.236;2023-07-02T14:07:14;1.00;;;0.60;;
44276;SDS011;29973;43.742;1.236;2023-07-02T14:09:40;1.77;;;0.60;;
44276;SDS011;29973;43.742;1.236;2023-07-02T14:12:06;2.95;;;0.80;;
44276;SDS011;29973;43.742;1.236;2023-07-02T14:14:32;1.60;;;0.80;;
44276;SDS011;29973;43.742;1.236;2023-07-02T14:16:58;1.63;;;1.10;;
44276;SDS011;29973;43.742;1.236;2023-07-02T14:19:23;1.55;;;0.88;;
44276;SDS011;29973;43.742;1.236;2023-07-02T14:21:49;2.50;;;0.70;;
44276;SDS011;29973;43.742;1.236;2023-07-02T14:24:15;1.40;;;0.90;;
44276;SDS011;29973;43.742;1.236;2023-07-02T14:26:41;1.98;;;1.08;;
44276;SDS011;29973;43.742;1.236;2023-07-02T14:29:08;1.33;;;0.70;;
44276;SDS011;29973;43.742;1.236;2023-07-02T14:31:34;1.08;;;0.90;;
44276;SDS011;29973;43.742;1.236;2023-07-02T14:34:00;1.73;;;1.02;;
44276;SDS011;29973;43.742;1.236;2023-07-02T14:36:26;1.13;;;0.80;;
44276;SDS011;29973;43.742;1.236;2023-07-02T14:38:51;2.55;;;0.93;;
44276;SDS011;29973;43.742;1.236;2023-07-02T14:41:17;0.80;;;0.80;;
44276;SDS011;29973;43.742;1.236;2023-07-02T14:43:43;1.30;;;0.85;;
44276;SDS011;29973;43.742;1.236;2023-07-02T14:46:08;1.13;;;0.77;;
44276;SDS011;29973;43.742;1.236;2023-07-02T14:48:34;1.58;;;0.88;;